createdAt,value
2023-03-03T00:01:47.113Z,98562.94
2023-03-03T00:04:13.781Z,98562.94
2023-03-03T00:06:40.486Z,98563.78
2023-03-03T00:09:07.192Z,98553.44
2023-03-03T00:11:33.937Z,98561.28
2023-03-03T00:14:00.690Z,98556.00
2023-03-03T00:16:40.749Z,98551.59
2023-03-03T00:19:17.511Z,98556.84
2023-03-03T00:21:49.650Z,98544.88
2023-03-03T00:24:31.846Z,98549.16
2023-03-03T00:27:09.193Z,98543.88
2023-03-03T00:29:40.636Z,98547.34
2023-03-03T00:32:24.534Z,98545.63
2023-03-03T00:34:53.409Z,98542.94
2023-03-03T00:37:29.238Z,98535.97
2023-03-03T00:40:20.705Z,98537.66
2023-03-03T00:42:52.187Z,98532.41
2023-03-03T00:45:43.642Z,98534.19
2023-03-03T00:48:21.696Z,98534.22
2023-03-03T00:50:49.003Z,98533.38
2023-03-03T00:53:19.738Z,98531.69
2023-03-03T00:55:48.379Z,98536.94
2023-03-03T00:58:15.211Z,98528.19
2023-03-03T01:00:45.951Z,98529.97
2023-03-03T01:03:17.919Z,98516.13
2023-03-03T01:05:44.987Z,98522.09
2023-03-03T01:08:12.023Z,98513.38
2023-03-03T01:10:52.775Z,98514.22
2023-03-03T01:13:23.821Z,98512.53
2023-03-03T01:15:51.847Z,98511.69
2023-03-03T01:18:18.734Z,98509.91
2023-03-03T01:20:46.083Z,98504.69
2023-03-03T01:23:13.345Z,98509.84
2023-03-03T01:25:40.356Z,98511.63
2023-03-03T01:28:07.159Z,98489.22
2023-03-03T01:30:33.943Z,98485.91
2023-03-03T01:33:01.149Z,98500.28
2023-03-03T01:35:27.828Z,98505.56
2023-03-03T01:37:54.581Z,98468.03
2023-03-03T01:40:24.475Z,98488.31
2023-03-03T01:42:52.731Z,98486.81
2023-03-03T01:45:25.816Z,98476.63
2023-03-03T01:48:00.357Z,98474.00
2023-03-03T01:50:33.303Z,98469.78
2023-03-03T01:53:04.858Z,98463.78
2023-03-03T01:55:36.299Z,98455.19
2023-03-03T01:58:11.341Z,98457.88
2023-03-03T02:00:41.050Z,98447.47
2023-03-03T02:03:08.264Z,98443.03
2023-03-03T02:05:35.451Z,98449.78
2023-03-03T02:08:03.154Z,98435.88
2023-03-03T02:10:30.635Z,98440.81
2023-03-03T02:12:58.495Z,98437.28
2023-03-03T02:15:32.328Z,98432.00
2023-03-03T02:18:03.142Z,98435.50
2023-03-03T02:20:54.198Z,98429.47
2023-03-03T02:23:36.133Z,98429.53
2023-03-03T02:26:08.940Z,98424.34
2023-03-03T02:28:37.934Z,98423.63
2023-03-03T02:31:13.328Z,98428.06
2023-03-03T02:33:43.122Z,98423.75
2023-03-03T02:36:21.369Z,98416.03
2023-03-03T02:38:53.926Z,98420.34
2023-03-03T02:41:23.497Z,98418.69
2023-03-03T02:43:56.641Z,98414.50
2023-03-03T02:46:24.297Z,98409.41
2023-03-03T02:48:51.032Z,98405.06
2023-03-03T02:51:17.861Z,98406.88
2023-03-03T02:53:46.165Z,98402.69
2023-03-03T02:56:12.976Z,98391.53
2023-03-03T02:58:39.776Z,98394.28
2023-03-03T03:01:07.449Z,98390.81
2023-03-03T03:03:35.080Z,98375.47
2023-03-03T03:06:04.830Z,98384.84
2023-03-03T03:08:31.619Z,98396.06
2023-03-03T03:10:58.370Z,98390.88
2023-03-03T03:13:27.501Z,98389.19
2023-03-03T03:15:54.676Z,98392.69
2023-03-03T03:18:21.524Z,98389.22
2023-03-03T03:20:49.843Z,98390.81
2023-03-03T03:23:17.303Z,98387.25
2023-03-03T03:25:47.257Z,98383.03
2023-03-03T03:28:20.882Z,98382.97
2023-03-03T03:30:47.993Z,98375.25
2023-03-03T03:33:14.748Z,98369.25
2023-03-03T03:35:45.619Z,98372.63
2023-03-03T03:38:14.850Z,98369.09
2023-03-03T03:40:43.382Z,98350.22
2023-03-03T03:43:10.335Z,98368.22
2023-03-03T03:45:37.158Z,98360.38
2023-03-03T03:48:04.733Z,98362.88
2023-03-03T03:50:32.265Z,98347.59
2023-03-03T03:52:59.035Z,98351.06
2023-03-03T03:55:26.814Z,98373.16
2023-03-03T03:57:53.668Z,98368.69
2023-03-03T04:00:20.641Z,98372.25
2023-03-03T04:02:54.021Z,98367.84
2023-03-03T04:05:21.347Z,98352.69
2023-03-03T04:07:49.015Z,98367.06
2023-03-03T04:10:18.310Z,98369.66
2023-03-03T04:12:45.821Z,98367.84
2023-03-03T04:15:15.308Z,98374.72
2023-03-03T04:17:42.971Z,98365.91
2023-03-03T04:20:15.997Z,98366.75
2023-03-03T04:22:45.196Z,98363.28
2023-03-03T04:25:17.089Z,98374.47
2023-03-03T04:27:45.844Z,98367.72
2023-03-03T04:30:16.262Z,98380.50
2023-03-03T04:32:46.165Z,98375.16
2023-03-03T04:35:13.412Z,98369.13
2023-03-03T04:37:43.186Z,98371.56
2023-03-03T04:40:11.835Z,98369.00
2023-03-03T04:42:40.137Z,98375.16
2023-03-03T04:45:09.097Z,98379.63
2023-03-03T04:47:36.384Z,98375.28
2023-03-03T04:50:03.913Z,98380.59
2023-03-03T04:52:32.625Z,98383.25
2023-03-03T04:54:59.739Z,98383.31
2023-03-03T04:57:26.999Z,98381.66
2023-03-03T04:59:54.440Z,98375.66
2023-03-03T05:02:21.375Z,98380.81
2023-03-03T05:04:48.482Z,98379.94
2023-03-03T05:07:15.217Z,98379.00
2023-03-03T05:09:41.921Z,98373.75
2023-03-03T05:12:08.735Z,98384.09
2023-03-03T05:14:35.482Z,98381.50
2023-03-03T05:17:03.520Z,98373.63
2023-03-03T05:19:30.408Z,98378.88
2023-03-03T05:21:57.671Z,98370.97
2023-03-03T05:24:24.463Z,98373.59
2023-03-03T05:26:51.266Z,98367.59
2023-03-03T05:29:18.109Z,98384.91
2023-03-03T05:31:45.751Z,98383.97
2023-03-03T05:34:12.734Z,98385.63
2023-03-03T05:36:39.452Z,98397.81
2023-03-03T05:39:06.177Z,98398.66
2023-03-03T05:41:36.786Z,98398.06
2023-03-03T05:44:04.245Z,98395.69
2023-03-03T05:46:31.025Z,98395.00
2023-03-03T05:48:57.763Z,98387.38
2023-03-03T05:51:24.562Z,98390.75
2023-03-03T05:53:51.426Z,98396.78
2023-03-03T05:56:18.477Z,98395.22
2023-03-03T05:58:45.277Z,98379.94
2023-03-03T06:01:12.546Z,98384.97
2023-03-03T06:03:39.188Z,98390.75
2023-03-03T06:06:06.187Z,98387.59
2023-03-03T06:08:33.792Z,98382.44
2023-03-03T06:11:01.569Z,98399.41
2023-03-03T06:13:30.451Z,98403.84
2023-03-03T06:15:57.998Z,98408.19
2023-03-03T06:18:25.426Z,98413.31
2023-03-03T06:20:54.475Z,98402.03
2023-03-03T06:23:22.855Z,98415.63
2023-03-03T06:25:50.618Z,98421.63
2023-03-03T06:28:18.226Z,98411.56
2023-03-03T06:30:45.896Z,98428.59
2023-03-03T06:33:13.406Z,98425.97
2023-03-03T06:35:41.362Z,98417.34
2023-03-03T06:38:11.440Z,98418.16
2023-03-03T06:40:39.502Z,98426.50
2023-03-03T06:43:07.149Z,98421.28
2023-03-03T06:45:34.123Z,98435.03
2023-03-03T06:48:00.979Z,98420.09
2023-03-03T06:50:28.021Z,98428.63
2023-03-03T06:53:07.832Z,98423.34
2023-03-03T06:55:34.536Z,98426.75
2023-03-03T06:58:03.094Z,98454.25
2023-03-03T07:00:31.290Z,98450.63
2023-03-03T07:03:02.691Z,98457.41
2023-03-03T07:05:29.942Z,98448.78
2023-03-03T07:07:57.470Z,98459.72
2023-03-03T07:10:30.717Z,98463.94
2023-03-03T07:13:07.055Z,98446.03
2023-03-03T07:15:35.621Z,98461.75
2023-03-03T07:18:03.456Z,98487.06
2023-03-03T07:20:41.156Z,98492.13
2023-03-03T07:23:31.903Z,98484.06
2023-03-03T07:25:58.604Z,98461.56
2023-03-03T07:28:28.422Z,98494.22
2023-03-03T07:30:57.232Z,98488.66
2023-03-03T07:33:38.472Z,98490.03
2023-03-03T07:36:19.835Z,98487.94
2023-03-03T07:38:53.715Z,98494.66
2023-03-03T07:41:26.086Z,98487.88
2023-03-03T07:43:59.131Z,98513.47
2023-03-03T07:46:31.881Z,98517.75
2023-03-03T07:49:00.448Z,98532.03
2023-03-03T07:51:45.682Z,98537.56
2023-03-03T07:54:28.612Z,98547.25
2023-03-03T07:57:02.218Z,98547.13
2023-03-03T07:59:28.989Z,98529.47
2023-03-03T08:01:58.276Z,98549.94
2023-03-03T08:04:31.444Z,98555.06
2023-03-03T08:07:00.548Z,98551.31
2023-03-03T08:10:00.403Z,98550.28
2023-03-03T08:12:42.546Z,98557.22
2023-03-03T08:15:37.231Z,98549.34
2023-03-03T08:18:21.213Z,98547.47
2023-03-03T08:20:59.551Z,98537.22
2023-03-03T08:23:27.382Z,98562.81
2023-03-03T08:25:58.786Z,98573.09
2023-03-03T08:28:27.689Z,98583.22
2023-03-03T08:31:12.468Z,98578.38
2023-03-03T08:33:42.499Z,98576.97
2023-03-03T08:36:14.892Z,98554.63
2023-03-03T08:38:42.078Z,98557.25
2023-03-03T08:41:09.745Z,98570.22
2023-03-03T08:43:36.498Z,98580.25
2023-03-03T08:46:06.010Z,98593.09
2023-03-03T08:48:33.693Z,98602.69
2023-03-03T08:51:00.927Z,98582.28
2023-03-03T08:53:29.428Z,98582.97
2023-03-03T08:55:56.904Z,98596.63
2023-03-03T08:58:34.757Z,98595.69
2023-03-03T09:01:02.610Z,98595.25
2023-03-03T09:03:29.957Z,98592.13
2023-03-03T09:05:56.935Z,98606.69
2023-03-03T09:08:23.675Z,98604.88
2023-03-03T09:10:51.829Z,98613.31
2023-03-03T09:13:21.264Z,98613.75
2023-03-03T09:15:50.809Z,98637.47
2023-03-03T09:18:22.794Z,98623.19
2023-03-03T09:20:54.763Z,98636.97
2023-03-03T09:23:42.464Z,98651.41
2023-03-03T09:26:28.329Z,98636.41
2023-03-03T09:29:38.729Z,98660.22
2023-03-03T09:32:30.313Z,98646.28
2023-03-03T09:34:57.873Z,98645.69
2023-03-03T09:37:37.817Z,98640.09
2023-03-03T09:40:39.713Z,98618.06
2023-03-03T09:43:18.304Z,98646.56
2023-03-03T09:46:03.875Z,98654.19
2023-03-03T09:48:37.327Z,98655.59
2023-03-03T09:51:36.154Z,98649.84
2023-03-03T09:54:48.400Z,98648.28
2023-03-03T09:57:24.411Z,98640.53
2023-03-03T10:00:06.218Z,98658.59
2023-03-03T10:03:03.235Z,98656.78
2023-03-03T10:06:01.979Z,98650.13
2023-03-03T10:08:48.431Z,98655.41
2023-03-03T10:11:44.085Z,98674.63
2023-03-03T10:14:13.931Z,98660.19
2023-03-03T10:16:58.900Z,98672.03
2023-03-03T10:19:38.534Z,98669.38
2023-03-03T10:22:14.288Z,98675.78
2023-03-03T10:25:04.991Z,98679.63
2023-03-03T10:27:40.962Z,98674.31
2023-03-03T10:30:33.161Z,98679.81
2023-03-03T10:33:28.209Z,98676.09
2023-03-03T10:36:35.314Z,98676.78
2023-03-03T10:39:30.018Z,98675.38
2023-03-03T10:42:35.693Z,98679.03
2023-03-03T10:45:29.729Z,98677.06
2023-03-03T10:48:05.711Z,98673.38
2023-03-03T10:50:48.040Z,98670.16
2023-03-03T10:53:37.612Z,98662.34
2023-03-03T10:56:53.380Z,98641.63
2023-03-03T10:59:42.871Z,98659.88
2023-03-03T11:02:19.973Z,98668.59
2023-03-03T11:05:08.688Z,98657.50
2023-03-03T11:07:42.730Z,98664.03
2023-03-03T11:10:09.562Z,98659.03
2023-03-03T11:12:57.594Z,98653.50
2023-03-03T11:15:41.986Z,98654.75
2023-03-03T11:18:33.834Z,98647.59
2023-03-03T11:21:23.275Z,98646.47
2023-03-03T11:24:19.287Z,98654.13
2023-03-03T11:26:58.539Z,98648.94
2023-03-03T11:29:43.943Z,98650.75
2023-03-03T11:32:13.635Z,98645.38
2023-03-03T11:34:46.087Z,98644.34
2023-03-03T11:37:33.091Z,98641.25
2023-03-03T11:40:10.063Z,98623.19
2023-03-03T11:42:52.485Z,98619.03
2023-03-03T11:45:22.817Z,98606.56
2023-03-03T11:48:13.058Z,98604.97
2023-03-03T11:50:43.041Z,98621.06
2023-03-03T11:53:24.884Z,98621.94
2023-03-03T11:56:14.864Z,98612.84
2023-03-03T11:59:03.541Z,98618.91
2023-03-03T12:01:30.822Z,98623.13
2023-03-03T12:04:14.465Z,98614.72
2023-03-03T12:07:12.961Z,98605.50
2023-03-03T12:10:14.712Z,98608.47
2023-03-03T12:12:45.208Z,98606.13
2023-03-03T12:15:22.454Z,98600.50
2023-03-03T12:18:38.116Z,98594.97
2023-03-03T12:21:23.751Z,98601.78
2023-03-03T12:24:17.718Z,98592.41
2023-03-03T12:26:53.591Z,98589.53
2023-03-03T12:29:35.381Z,98581.94
2023-03-03T12:32:36.955Z,98586.94
2023-03-03T12:35:49.136Z,98584.81
2023-03-03T12:38:23.699Z,98575.38
2023-03-03T12:40:59.537Z,98571.22
2023-03-03T12:43:51.108Z,98555.00
2023-03-03T12:46:44.957Z,98579.72
2023-03-03T12:49:13.181Z,98575.78
2023-03-03T12:52:23.291Z,98582.72
2023-03-03T12:55:00.164Z,98575.56
2023-03-03T12:57:31.318Z,98566.28
2023-03-03T13:00:15.370Z,98571.25
2023-03-03T13:03:05.870Z,98570.84
2023-03-03T13:05:51.563Z,98557.69
2023-03-03T13:08:34.009Z,98563.72
2023-03-03T13:11:19.951Z,98560.41
2023-03-03T13:14:26.264Z,98564.25
2023-03-03T13:17:14.023Z,98561.00
2023-03-03T13:20:05.689Z,98556.44
2023-03-03T13:23:03.463Z,98560.53
2023-03-03T13:25:50.204Z,98557.25
2023-03-03T13:29:02.069Z,98552.81
2023-03-03T13:31:49.328Z,98548.78
2023-03-03T13:34:44.714Z,98544.66
2023-03-03T13:37:31.558Z,98548.63
2023-03-03T13:40:18.933Z,98506.94
2023-03-03T13:42:55.035Z,98546.75
2023-03-03T13:45:38.565Z,98534.91
2023-03-03T13:48:21.894Z,98550.38
2023-03-03T13:50:58.051Z,98521.75
2023-03-03T13:53:54.979Z,98536.50
2023-03-03T13:56:53.624Z,98538.34
2023-03-03T13:59:46.228Z,98540.84
2023-03-03T14:02:38.338Z,98543.94
2023-03-03T14:05:36.164Z,98529.72
2023-03-03T14:08:24.880Z,98541.06
2023-03-03T14:11:05.637Z,98536.25
2023-03-03T14:13:54.515Z,98530.66
2023-03-03T14:16:46.468Z,98532.34
2023-03-03T14:19:27.537Z,98527.63
2023-03-03T14:22:24.433Z,98526.31
2023-03-03T14:24:57.274Z,98517.25
2023-03-03T14:27:49.238Z,98513.13
2023-03-03T14:30:21.934Z,98524.84
2023-03-03T14:33:18.157Z,98533.09
2023-03-03T14:35:57.028Z,98526.75
2023-03-03T14:38:36.759Z,98526.19
2023-03-03T14:41:13.525Z,98527.88
2023-03-03T14:43:59.876Z,98524.38
2023-03-03T14:46:40.412Z,98523.03
2023-03-03T14:49:16.674Z,98513.75
2023-03-03T14:51:45.449Z,98523.63
2023-03-03T14:54:22.386Z,98522.56
2023-03-03T14:57:20.365Z,98517.13
2023-03-03T15:00:26.569Z,98525.22
2023-03-03T15:02:53.226Z,98522.88
2023-03-03T15:05:24.432Z,98513.88
2023-03-03T15:07:55.522Z,98516.78
2023-03-03T15:10:31.058Z,98513.91
2023-03-03T15:12:58.483Z,98515.47
2023-03-03T15:15:27.394Z,98495.66
2023-03-03T15:18:05.369Z,98508.06
2023-03-03T15:20:45.525Z,98507.97
2023-03-03T15:23:37.670Z,98503.63
2023-03-03T15:26:14.295Z,98505.91
2023-03-03T15:29:16.747Z,98498.06
2023-03-03T15:32:22.875Z,98484.78
2023-03-03T15:35:06.792Z,98503.47
2023-03-03T15:37:47.791Z,98508.13
2023-03-03T15:40:34.365Z,98508.91
2023-03-03T15:43:39.764Z,98513.19
2023-03-03T15:46:29.366Z,98508.00
2023-03-03T15:49:21.915Z,98516.72
2023-03-03T15:52:25.575Z,98516.28
2023-03-03T15:55:04.893Z,98512.84
2023-03-03T15:57:53.687Z,98517.81
2023-03-03T16:00:43.763Z,98521.25
2023-03-03T16:03:46.574Z,98523.09
2023-03-03T16:06:28.630Z,98518.41
2023-03-03T16:09:31.419Z,98516.88
2023-03-03T16:12:09.743Z,98519.13
2023-03-03T16:15:20.480Z,98526.09
2023-03-03T16:18:12.203Z,98533.97
2023-03-03T16:21:03.133Z,98527.53
2023-03-03T16:23:40.522Z,98530.75
2023-03-03T16:26:51.045Z,98531.09
2023-03-03T16:29:28.148Z,98543.31
2023-03-03T16:32:12.607Z,98545.19
2023-03-03T16:35:03.296Z,98547.59
2023-03-03T16:37:35.083Z,98548.25
2023-03-03T16:40:14.399Z,98551.81
2023-03-03T16:42:41.185Z,98548.94
2023-03-03T16:45:24.877Z,98557.72
2023-03-03T16:47:59.342Z,98559.34
2023-03-03T16:51:03.311Z,98541.63
2023-03-03T16:53:40.258Z,98560.63
2023-03-03T16:56:11.617Z,98565.38
2023-03-03T16:59:16.429Z,98570.16
2023-03-03T17:02:06.064Z,98579.66
2023-03-03T17:04:41.008Z,98572.47
2023-03-03T17:07:07.780Z,98588.38
2023-03-03T17:10:25.805Z,98577.72
2023-03-03T17:13:02.370Z,98580.06
2023-03-03T17:15:53.846Z,98596.78
2023-03-03T17:18:36.094Z,98605.78
2023-03-03T17:21:19.325Z,98600.06
2023-03-03T17:24:04.335Z,98602.06
2023-03-03T17:26:52.140Z,98596.50
2023-03-03T17:29:35.855Z,98607.81
2023-03-03T17:32:30.663Z,98602.00
2023-03-03T17:35:38.199Z,98611.22
2023-03-03T17:38:20.407Z,98608.00
2023-03-03T17:40:53.011Z,98604.91
2023-03-03T17:43:29.553Z,98616.38
2023-03-03T17:46:02.180Z,98614.97
2023-03-03T17:48:47.468Z,98619.75
2023-03-03T17:51:14.197Z,98619.13
2023-03-03T17:53:57.714Z,98622.88
2023-03-03T17:56:30.137Z,98629.31
2023-03-03T17:59:25.818Z,98634.84
2023-03-03T18:02:01.646Z,98645.69
2023-03-03T18:04:38.156Z,98639.75
2023-03-03T18:07:23.491Z,98647.78
2023-03-03T18:10:16.131Z,98660.28
2023-03-03T18:13:04.483Z,98642.31
2023-03-03T18:16:12.103Z,98637.56
2023-03-03T18:19:01.153Z,98646.81
2023-03-03T18:21:33.204Z,98647.06
2023-03-03T18:24:25.834Z,98653.44
2023-03-03T18:26:56.180Z,98650.41
2023-03-03T18:29:30.321Z,98639.88
2023-03-03T18:31:57.655Z,98650.34
2023-03-03T18:34:37.936Z,98641.75
2023-03-03T18:37:30.377Z,98642.78
2023-03-03T18:40:03.250Z,98647.44
2023-03-03T18:42:40.063Z,98641.06
2023-03-03T18:45:33.067Z,98649.16
2023-03-03T18:48:10.396Z,98644.69
2023-03-03T18:50:52.405Z,98642.16
2023-03-03T18:53:29.788Z,98647.53
2023-03-03T18:56:02.511Z,98627.16
2023-03-03T18:58:37.989Z,98628.19
2023-03-03T19:01:29.805Z,98649.16
2023-03-03T19:04:23.731Z,98647.03
2023-03-03T19:06:53.321Z,98640.69
2023-03-03T19:09:39.933Z,98627.94
2023-03-03T19:12:11.595Z,98624.53
2023-03-03T19:14:45.273Z,98620.28
2023-03-03T19:17:19.403Z,98620.59
2023-03-03T19:20:18.260Z,98617.22
2023-03-03T19:23:00.917Z,98624.56
2023-03-03T19:25:29.217Z,98634.56
2023-03-03T19:28:14.524Z,98627.72
2023-03-03T19:30:59.357Z,98634.75
2023-03-03T19:33:45.610Z,98641.53
2023-03-03T19:36:24.064Z,98644.22
2023-03-03T19:39:23.874Z,98640.75
2023-03-03T19:42:17.994Z,98642.00
2023-03-03T19:45:11.723Z,98638.16
2023-03-03T19:48:04.826Z,98646.94
2023-03-03T19:50:35.372Z,98639.00
2023-03-03T19:53:16.988Z,98630.78
2023-03-03T19:56:07.926Z,98642.13
2023-03-03T19:58:56.034Z,98644.31
2023-03-03T20:01:40.145Z,98658.38
2023-03-03T20:04:44.404Z,98664.03
2023-03-03T20:07:29.101Z,98663.78
2023-03-03T20:10:14.145Z,98659.75
2023-03-03T20:12:40.818Z,98665.19
2023-03-03T20:15:15.192Z,98664.53
2023-03-03T20:18:30.268Z,98663.75
2023-03-03T20:21:20.918Z,98663.13
2023-03-03T20:24:06.237Z,98656.25
2023-03-03T20:27:17.620Z,98662.31
2023-03-03T20:30:08.741Z,98659.44
2023-03-03T20:32:39.762Z,98661.41
2023-03-03T20:35:42.487Z,98647.72
2023-03-03T20:38:23.107Z,98648.06
2023-03-03T20:41:17.114Z,98638.75
2023-03-03T20:43:56.830Z,98658.91
2023-03-03T20:46:50.019Z,98656.44
2023-03-03T20:49:48.740Z,98661.03
2023-03-03T20:52:30.510Z,98660.34
2023-03-03T20:55:24.668Z,98656.91
2023-03-03T20:58:05.515Z,98646.69
2023-03-03T21:00:57.656Z,98661.47
2023-03-03T21:03:38.977Z,98656.56
2023-03-03T21:06:09.195Z,98646.34
2023-03-03T21:08:56.352Z,98650.75
2023-03-03T21:11:32.362Z,98658.81
2023-03-03T21:14:00.170Z,98657.22
2023-03-03T21:16:26.907Z,98646.94
2023-03-03T21:19:22.694Z,98632.50
2023-03-03T21:21:50.535Z,98649.00
2023-03-03T21:24:19.927Z,98631.47
2023-03-03T21:27:01.090Z,98617.72
2023-03-03T21:29:33.560Z,98620.94
2023-03-03T21:32:03.096Z,98608.56
2023-03-03T21:34:33.124Z,98612.47
2023-03-03T21:37:02.041Z,98611.72
2023-03-03T21:39:31.631Z,98605.84
2023-03-03T21:42:08.886Z,98608.75
2023-03-03T21:44:52.462Z,98609.53
2023-03-03T21:47:21.551Z,98610.78
2023-03-03T21:49:50.404Z,98602.97
2023-03-03T21:52:18.942Z,98589.94
2023-03-03T21:54:47.080Z,98602.66
2023-03-03T21:57:14.566Z,98613.19
2023-03-03T21:59:41.925Z,98612.00
2023-03-03T22:02:09.160Z,98613.28
2023-03-03T22:04:38.411Z,98607.69
2023-03-03T22:07:05.486Z,98617.31
2023-03-03T22:09:32.226Z,98610.31
2023-03-03T22:11:59.171Z,98600.53
2023-03-03T22:14:25.934Z,98608.72
2023-03-03T22:16:52.780Z,98616.84
2023-03-03T22:19:19.577Z,98626.50
2023-03-03T22:21:47.335Z,98629.19
2023-03-03T22:24:14.026Z,98618.75
2023-03-03T22:26:40.835Z,98621.22
2023-03-03T22:29:08.445Z,98622.72
2023-03-03T22:31:35.258Z,98623.47
2023-03-03T22:34:02.882Z,98617.28
2023-03-03T22:36:29.570Z,98617.94
2023-03-03T22:38:56.298Z,98613.50
2023-03-03T22:41:23.100Z,98621.19
2023-03-03T22:43:49.955Z,98622.13
2023-03-03T22:46:16.708Z,98614.34
2023-03-03T22:48:43.684Z,98618.59
2023-03-03T22:51:10.387Z,98616.50
2023-03-03T22:53:37.145Z,98607.66
2023-03-03T22:56:04.052Z,98605.91
2023-03-03T22:58:30.932Z,98610.53
2023-03-03T23:00:57.670Z,98618.25
2023-03-03T23:03:24.832Z,98639.09
2023-03-03T23:05:52.077Z,98627.00
2023-03-03T23:08:20.646Z,98593.16
2023-03-03T23:10:48.303Z,98603.81
2023-03-03T23:13:15.456Z,98604.59
2023-03-03T23:15:42.298Z,98603.66
2023-03-03T23:18:09.057Z,98597.44
2023-03-03T23:20:37.053Z,98606.31
2023-03-03T23:23:04.189Z,98614.59
2023-03-03T23:25:30.948Z,98622.91
2023-03-03T23:27:57.921Z,98616.41
2023-03-03T23:30:24.886Z,98621.69
2023-03-03T23:32:52.056Z,98619.19
2023-03-03T23:35:20.045Z,98611.38
2023-03-03T23:37:46.964Z,98614.06
2023-03-03T23:40:15.381Z,98620.13
2023-03-03T23:42:42.394Z,98616.59
2023-03-03T23:45:10.696Z,98593.47
2023-03-03T23:47:37.703Z,98609.94
2023-03-03T23:50:04.922Z,98610.88
2023-03-03T23:52:31.845Z,98590.38
2023-03-03T23:54:58.747Z,98610.78
2023-03-03T23:57:25.730Z,98606.50
2023-03-03T23:59:52.429Z,98616.41
